createdAt,value
2023-11-30T00:00:49.105Z,5.90
2023-11-30T00:03:18.816Z,5.90
2023-11-30T00:05:47.605Z,5.90
2023-11-30T00:08:17.146Z,5.90
2023-11-30T00:10:45.853Z,5.90
2023-11-30T00:13:15.865Z,5.90
2023-11-30T00:15:47.865Z,5.90
2023-11-30T00:18:16.684Z,5.90
2023-11-30T00:20:46.189Z,5.90
2023-11-30T00:23:14.683Z,5.90
2023-11-30T00:25:45.028Z,5.90
2023-11-30T00:28:14.377Z,5.90
2023-11-30T00:30:42.968Z,5.90
2023-11-30T00:33:16.859Z,5.90
2023-11-30T00:35:47.335Z,5.80
2023-11-30T00:38:17.162Z,5.90
2023-11-30T00:40:45.641Z,5.90
2023-11-30T00:43:14.220Z,5.90
2023-11-30T00:45:43.327Z,5.90
2023-11-30T00:48:13.807Z,5.90
2023-11-30T00:50:42.391Z,5.90
2023-11-30T00:53:11.932Z,5.80
2023-11-30T00:55:40.448Z,5.80
2023-11-30T00:58:08.746Z,5.80
2023-11-30T01:00:37.087Z,5.80
2023-11-30T01:03:07.578Z,5.80
2023-11-30T01:05:37.624Z,5.80
2023-11-30T01:08:06.498Z,5.80
2023-11-30T01:10:38.095Z,5.80
2023-11-30T01:13:08.021Z,5.80
2023-11-30T01:15:36.910Z,5.70
2023-11-30T01:18:06.138Z,5.70
2023-11-30T01:20:37.208Z,5.70
2023-11-30T01:23:12.785Z,5.70
2023-11-30T01:25:42.499Z,5.60
2023-11-30T01:28:12.150Z,5.60
2023-11-30T01:30:43.567Z,5.60
2023-11-30T01:33:12.283Z,5.60
2023-11-30T01:35:43.262Z,5.50
2023-11-30T01:38:12.607Z,5.50
2023-11-30T01:40:42.229Z,5.50
2023-11-30T01:43:13.744Z,5.50
2023-11-30T01:45:42.498Z,5.50
2023-11-30T01:48:12.030Z,5.50
2023-11-30T01:50:44.732Z,5.50
2023-11-30T01:53:14.566Z,5.50
2023-11-30T01:55:44.114Z,5.50
2023-11-30T01:58:13.259Z,5.50
2023-11-30T02:00:44.050Z,5.50
2023-11-30T02:03:13.289Z,5.50
2023-11-30T02:05:47.465Z,5.50
2023-11-30T02:08:16.785Z,5.50
2023-11-30T02:10:45.259Z,5.50
2023-11-30T02:13:13.611Z,5.50
2023-11-30T02:15:43.874Z,5.50
2023-11-30T02:18:13.470Z,5.50
2023-11-30T02:20:45.426Z,5.50
2023-11-30T02:23:15.216Z,5.50
2023-11-30T02:25:43.806Z,5.40
2023-11-30T02:28:18.101Z,5.40
2023-11-30T02:30:49.484Z,5.40
2023-11-30T02:33:19.288Z,5.40
2023-11-30T02:35:48.916Z,5.40
2023-11-30T02:38:18.947Z,5.30
2023-11-30T02:40:47.366Z,5.30
2023-11-30T02:43:16.844Z,5.30
2023-11-30T02:45:46.993Z,5.30
2023-11-30T02:48:17.161Z,5.30
2023-11-30T02:50:45.568Z,5.30
2023-11-30T02:53:18.428Z,5.30
2023-11-30T02:55:48.906Z,5.30
2023-11-30T02:58:17.341Z,5.30
2023-11-30T03:00:48.944Z,5.30
2023-11-30T03:03:18.673Z,5.30
2023-11-30T03:05:48.175Z,5.30
2023-11-30T03:08:18.927Z,5.30
2023-11-30T03:10:47.343Z,5.30
2023-11-30T03:13:19.950Z,5.20
2023-11-30T03:15:49.735Z,5.20
2023-11-30T03:18:18.386Z,5.20
2023-11-30T03:20:48.930Z,5.20
2023-11-30T03:23:21.465Z,5.20
2023-11-30T03:25:52.054Z,5.20
2023-11-30T03:28:21.478Z,5.20
2023-11-30T03:30:51.083Z,5.20
2023-11-30T03:33:20.529Z,5.20
2023-11-30T03:35:51.928Z,5.20
2023-11-30T03:38:25.203Z,5.20
2023-11-30T03:40:54.671Z,5.20
2023-11-30T03:43:24.227Z,5.10
2023-11-30T03:45:52.727Z,5.10
2023-11-30T03:48:22.663Z,5.10
2023-11-30T03:50:50.303Z,5.10
2023-11-30T03:53:19.837Z,5.10
2023-11-30T03:55:50.049Z,5.10
2023-11-30T03:58:18.839Z,5.10
2023-11-30T04:00:48.289Z,5.10
2023-11-30T04:03:16.933Z,5.10
2023-11-30T04:05:45.614Z,5.10
2023-11-30T04:08:14.168Z,5.10
2023-11-30T04:10:43.583Z,5.10
2023-11-30T04:13:14.746Z,5.10
2023-11-30T04:15:44.359Z,5.10
2023-11-30T04:18:15.456Z,5.10
2023-11-30T04:20:44.340Z,5.20
2023-11-30T04:23:12.734Z,5.20
2023-11-30T04:25:42.295Z,5.10
2023-11-30T04:28:11.708Z,5.10
2023-11-30T04:30:41.624Z,5.10
2023-11-30T04:33:12.409Z,5.10
2023-11-30T04:35:42.789Z,5.10
2023-11-30T04:38:12.131Z,5.10
2023-11-30T04:40:41.667Z,5.10
2023-11-30T04:43:11.037Z,5.10
2023-11-30T04:45:44.801Z,5.10
2023-11-30T04:48:14.443Z,5.10
2023-11-30T04:50:43.465Z,5.10
2023-11-30T04:53:11.813Z,5.10
2023-11-30T04:55:42.197Z,5.10
2023-11-30T04:58:10.577Z,5.00
2023-11-30T05:00:39.042Z,5.00
2023-11-30T05:03:09.365Z,5.00
2023-11-30T05:05:37.839Z,5.00
2023-11-30T05:08:06.549Z,4.90
2023-11-30T05:10:36.068Z,4.90
2023-11-30T05:13:05.514Z,4.90
2023-11-30T05:15:39.695Z,4.90
2023-11-30T05:18:11.784Z,4.90
2023-11-30T05:20:41.932Z,4.80
2023-11-30T05:23:10.737Z,4.80
2023-11-30T05:25:39.362Z,4.80
2023-11-30T05:28:08.145Z,4.80
2023-11-30T05:30:43.596Z,4.80
2023-11-30T05:33:16.555Z,4.80
2023-11-30T05:35:45.260Z,4.80
2023-11-30T05:38:15.987Z,4.80
2023-11-30T05:40:45.674Z,4.70
2023-11-30T05:43:21.607Z,4.70
2023-11-30T05:45:54.718Z,4.70
2023-11-30T05:48:25.803Z,4.70
2023-11-30T05:50:55.138Z,4.70
2023-11-30T05:53:26.879Z,4.70
2023-11-30T05:55:57.562Z,4.70
2023-11-30T05:58:26.025Z,4.70
2023-11-30T06:00:54.405Z,4.70
2023-11-30T06:03:28.695Z,4.80
2023-11-30T06:05:57.398Z,4.80
2023-11-30T06:08:27.010Z,4.80
2023-11-30T06:10:59.837Z,4.90
2023-11-30T06:13:44.570Z,4.90
2023-11-30T06:16:19.147Z,4.90
2023-11-30T06:18:53.221Z,5.00
2023-11-30T06:21:21.957Z,5.00
2023-11-30T06:23:50.648Z,5.00
2023-11-30T06:26:19.057Z,5.00
2023-11-30T06:28:48.479Z,5.00
2023-11-30T06:31:18.572Z,5.10
2023-11-30T06:33:47.590Z,5.10
2023-11-30T06:36:27.523Z,5.10
2023-11-30T06:39:04.344Z,5.10
2023-11-30T06:41:43.119Z,5.10
2023-11-30T06:44:13.906Z,5.10
2023-11-30T06:46:48.376Z,5.10
2023-11-30T06:49:17.618Z,5.20
2023-11-30T06:51:52.794Z,5.20
2023-11-30T06:54:23.955Z,5.10
2023-11-30T06:56:58.906Z,5.10
2023-11-30T06:59:31.921Z,5.10
2023-11-30T07:02:19.551Z,5.10
2023-11-30T07:04:54.458Z,5.10
2023-11-30T07:07:34.291Z,5.10
2023-11-30T07:10:14.232Z,5.20
2023-11-30T07:12:46.935Z,5.20
2023-11-30T07:15:18.481Z,5.20
2023-11-30T07:17:54.388Z,5.20
2023-11-30T07:20:23.583Z,5.20
2023-11-30T07:22:57.425Z,5.20
2023-11-30T07:25:26.158Z,5.20
2023-11-30T07:28:10.297Z,5.30
2023-11-30T07:30:42.253Z,5.30
2023-11-30T07:36:18.102Z,5.40
2023-11-30T07:38:54.485Z,5.40
2023-11-30T07:41:23.401Z,5.50
2023-11-30T07:43:54.713Z,5.50
2023-11-30T07:46:27.759Z,5.60
2023-11-30T07:48:57.306Z,5.60
2023-11-30T07:51:27.172Z,5.60
2023-11-30T07:54:01.280Z,5.70
2023-11-30T07:56:30.528Z,5.80
2023-11-30T07:58:58.904Z,5.80
2023-11-30T08:01:29.012Z,5.90
2023-11-30T08:03:57.706Z,5.90
2023-11-30T08:06:27.488Z,5.90
2023-11-30T08:08:59.016Z,6.00
2023-11-30T08:11:34.926Z,6.00
2023-11-30T08:14:03.532Z,6.10
2023-11-30T08:16:34.409Z,6.10
2023-11-30T08:19:03.358Z,6.10
2023-11-30T08:21:32.991Z,6.20
2023-11-30T08:24:03.258Z,6.30
2023-11-30T08:26:33.041Z,6.30
2023-11-30T08:29:01.735Z,6.40
2023-11-30T08:31:32.137Z,6.40
2023-11-30T08:34:10.973Z,6.50
2023-11-30T08:36:39.484Z,6.50
2023-11-30T08:39:10.350Z,6.60
2023-11-30T08:41:38.832Z,6.60
2023-11-30T08:44:10.854Z,6.70
2023-11-30T08:46:41.588Z,6.70
2023-11-30T08:49:13.667Z,6.80
2023-11-30T08:51:45.851Z,6.80
2023-11-30T08:54:16.626Z,6.80
2023-11-30T08:56:47.286Z,6.90
2023-11-30T08:59:17.600Z,6.90
2023-11-30T09:01:46.356Z,6.90
2023-11-30T09:04:28.797Z,7.00
2023-11-30T09:07:04.644Z,7.10
2023-11-30T09:09:37.922Z,7.20
2023-11-30T09:12:08.996Z,7.20
2023-11-30T09:14:40.757Z,7.30
2023-11-30T09:17:12.273Z,7.20
2023-11-30T09:19:41.633Z,7.30
2023-11-30T09:22:12.397Z,7.30
2023-11-30T09:24:47.985Z,7.30
2023-11-30T09:27:16.573Z,7.40
2023-11-30T09:29:47.344Z,7.40
2023-11-30T09:32:18.695Z,7.40
2023-11-30T09:34:49.256Z,7.50
2023-11-30T09:37:20.035Z,7.50
2023-11-30T09:39:50.594Z,7.50
2023-11-30T09:42:27.943Z,7.60
2023-11-30T09:45:02.481Z,7.60
2023-11-30T09:47:34.566Z,7.60
2023-11-30T09:50:05.302Z,7.60
2023-11-30T09:52:36.116Z,7.70
2023-11-30T09:55:12.402Z,7.70
2023-11-30T09:57:41.565Z,7.80
2023-11-30T10:00:13.336Z,7.90
2023-11-30T10:02:56.398Z,8.00
2023-11-30T10:05:26.616Z,8.10
2023-11-30T10:08:00.224Z,8.10
2023-11-30T10:10:40.766Z,8.20
2023-11-30T10:13:13.085Z,8.30
2023-11-30T10:15:48.504Z,8.40
2023-11-30T10:18:17.460Z,8.40
2023-11-30T10:20:53.035Z,8.50
2023-11-30T10:23:25.298Z,8.50
2023-11-30T10:25:59.230Z,8.50
2023-11-30T10:28:27.766Z,8.60
2023-11-30T10:30:56.643Z,8.70
2023-11-30T10:33:38.679Z,8.80
2023-11-30T10:36:29.583Z,8.80
2023-11-30T10:39:14.179Z,8.80
2023-11-30T10:41:53.917Z,8.90
2023-11-30T10:44:28.095Z,8.90
2023-11-30T10:46:56.580Z,8.90
2023-11-30T10:49:26.622Z,9.00
2023-11-30T10:52:01.049Z,9.00
2023-11-30T10:54:37.392Z,9.00
2023-11-30T10:57:09.689Z,9.00
2023-11-30T10:59:45.697Z,9.10
2023-11-30T11:02:16.983Z,9.20
2023-11-30T11:04:46.049Z,9.20
2023-11-30T11:07:17.085Z,9.30
2023-11-30T11:09:55.455Z,9.40
2023-11-30T11:12:41.404Z,9.50
2023-11-30T11:15:16.998Z,9.60
2023-11-30T11:17:50.783Z,9.80
2023-11-30T11:20:26.315Z,9.80
2023-11-30T11:22:56.972Z,9.90
2023-11-30T11:25:27.501Z,10.00
2023-11-30T11:27:58.282Z,10.00
2023-11-30T11:30:28.443Z,10.10
2023-11-30T11:33:02.886Z,10.10
2023-11-30T11:35:31.364Z,10.10
2023-11-30T11:38:01.625Z,10.10
2023-11-30T11:40:30.589Z,10.20
2023-11-30T11:43:01.714Z,10.20
2023-11-30T11:45:34.501Z,10.30
2023-11-30T11:48:04.432Z,10.30
2023-11-30T11:50:34.420Z,10.30
2023-11-30T11:53:04.724Z,10.40
2023-11-30T11:55:34.589Z,10.40
2023-11-30T11:58:04.716Z,10.40
2023-11-30T12:00:55.418Z,10.40
2023-11-30T12:03:25.285Z,10.50
2023-11-30T12:05:56.066Z,10.50
2023-11-30T12:08:36.609Z,10.50
2023-11-30T12:11:08.680Z,10.60
2023-11-30T12:13:40.026Z,10.60
2023-11-30T12:16:10.244Z,10.70
2023-11-30T12:18:38.931Z,10.70
2023-11-30T12:21:09.933Z,10.80
2023-11-30T12:23:39.463Z,10.80
2023-11-30T12:26:10.369Z,10.90
2023-11-30T12:28:44.359Z,10.90
2023-11-30T12:31:12.953Z,11.00
2023-11-30T12:33:42.106Z,11.00
2023-11-30T12:36:15.439Z,11.00
2023-11-30T12:38:51.090Z,11.10
2023-11-30T12:41:26.302Z,11.20
2023-11-30T12:43:56.272Z,11.30
2023-11-30T12:46:33.015Z,11.30
2023-11-30T12:49:06.793Z,11.20
2023-11-30T12:51:36.164Z,11.30
2023-11-30T12:54:05.735Z,11.40
2023-11-30T12:56:34.838Z,11.40
2023-11-30T12:59:10.063Z,11.40
2023-11-30T13:01:39.698Z,11.40
2023-11-30T13:04:08.477Z,11.40
2023-11-30T13:06:40.772Z,11.40
2023-11-30T13:09:10.322Z,11.40
2023-11-30T13:11:39.579Z,11.50
2023-11-30T13:14:10.832Z,11.50
2023-11-30T13:16:40.351Z,11.50
2023-11-30T13:19:12.107Z,11.60
2023-11-30T13:21:42.161Z,11.70
2023-11-30T13:24:12.320Z,12.00
2023-11-30T13:26:44.731Z,12.20
2023-11-30T13:29:19.390Z,12.70
2023-11-30T13:31:48.436Z,13.40
2023-11-30T13:34:18.534Z,14.20
2023-11-30T13:36:54.499Z,14.10
2023-11-30T13:39:39.292Z,14.40
2023-11-30T13:42:16.186Z,14.60
2023-11-30T13:44:47.861Z,14.50
2023-11-30T13:47:18.288Z,14.50
2023-11-30T13:49:47.047Z,14.90
2023-11-30T13:52:16.003Z,14.60
2023-11-30T13:54:44.876Z,14.30
2023-11-30T13:57:13.718Z,14.00
2023-11-30T13:59:49.996Z,13.80
2023-11-30T14:02:25.897Z,13.80
2023-11-30T14:04:58.083Z,13.80
2023-11-30T14:07:27.851Z,13.60
2023-11-30T14:09:59.681Z,13.30
2023-11-30T14:12:35.007Z,13.30
2023-11-30T14:15:12.430Z,13.10
2023-11-30T14:17:41.932Z,12.90
2023-11-30T14:20:12.319Z,12.70
2023-11-30T14:22:47.454Z,12.60
2023-11-30T14:25:16.757Z,12.40
2023-11-30T14:27:46.628Z,12.30
2023-11-30T14:30:20.684Z,12.20
2023-11-30T14:32:55.423Z,12.10
2023-11-30T14:35:24.446Z,11.90
2023-11-30T14:37:59.110Z,11.80
2023-11-30T14:40:29.979Z,11.70
2023-11-30T14:43:15.539Z,11.60
2023-11-30T14:45:46.674Z,11.50
2023-11-30T14:48:16.873Z,11.40
2023-11-30T14:50:46.722Z,11.30
2023-11-30T14:53:16.711Z,11.20
2023-11-30T14:55:45.593Z,11.10
2023-11-30T14:58:15.740Z,11.00
2023-11-30T15:01:13.045Z,10.90
2023-11-30T15:03:45.897Z,10.80
2023-11-30T15:06:28.278Z,10.80
2023-11-30T15:08:57.471Z,10.70
2023-11-30T15:11:27.500Z,10.70
2023-11-30T15:13:57.447Z,10.60
2023-11-30T15:16:33.745Z,10.60
2023-11-30T15:19:02.628Z,10.50
2023-11-30T15:21:34.583Z,10.40
2023-11-30T15:24:05.709Z,10.40
2023-11-30T15:26:34.379Z,10.30
2023-11-30T15:29:03.182Z,10.30
2023-11-30T15:31:33.567Z,10.20
2023-11-30T15:34:08.188Z,10.10
2023-11-30T15:36:44.144Z,10.10
2023-11-30T15:39:17.708Z,10.00
2023-11-30T15:41:55.746Z,9.90
2023-11-30T15:44:25.947Z,9.90
2023-11-30T15:47:13.414Z,9.80
2023-11-30T15:49:46.829Z,9.70
2023-11-30T15:52:22.948Z,9.60
2023-11-30T15:54:52.071Z,9.60
2023-11-30T15:57:32.136Z,9.50
2023-11-30T16:00:09.267Z,9.50
2023-11-30T16:02:49.742Z,9.40
2023-11-30T16:05:41.765Z,9.40
2023-11-30T16:08:16.901Z,9.40
2023-11-30T16:10:46.978Z,9.30
2023-11-30T16:13:18.127Z,9.30
2023-11-30T16:15:49.042Z,9.30
2023-11-30T16:18:28.288Z,9.20
2023-11-30T16:21:00.990Z,9.20
2023-11-30T16:23:35.103Z,9.20
2023-11-30T16:26:06.610Z,9.10
2023-11-30T16:28:39.592Z,9.10
2023-11-30T16:31:11.560Z,9.10
2023-11-30T16:33:42.475Z,9.00
2023-11-30T16:36:12.907Z,9.00
2023-11-30T16:38:41.841Z,9.00
2023-11-30T16:41:11.703Z,9.00
2023-11-30T16:43:40.785Z,8.90
2023-11-30T16:46:10.807Z,8.90
2023-11-30T16:48:48.053Z,8.90
2023-11-30T16:51:16.906Z,8.90
2023-11-30T16:53:45.510Z,8.90
2023-11-30T16:56:25.794Z,8.90
2023-11-30T16:58:56.240Z,8.90
2023-11-30T17:01:25.375Z,8.90
2023-11-30T17:04:00.118Z,8.90
2023-11-30T17:06:30.150Z,8.90
2023-11-30T17:09:00.989Z,8.90
2023-11-30T17:11:36.880Z,8.90
2023-11-30T17:14:06.695Z,8.90
2023-11-30T17:16:37.267Z,8.80
2023-11-30T17:19:09.476Z,8.80
2023-11-30T17:21:39.707Z,8.80
2023-11-30T17:24:16.790Z,8.80
2023-11-30T17:26:54.277Z,8.80
2023-11-30T17:29:23.801Z,8.70
2023-11-30T17:31:52.846Z,8.70
2023-11-30T17:34:27.829Z,8.70
2023-11-30T17:36:57.722Z,8.60
2023-11-30T17:39:27.481Z,8.60
2023-11-30T17:41:56.188Z,8.60
2023-11-30T17:44:33.128Z,8.50
2023-11-30T17:47:01.843Z,8.50
2023-11-30T17:49:47.334Z,8.50
2023-11-30T17:52:20.253Z,8.50
2023-11-30T17:54:55.223Z,8.40
2023-11-30T17:57:26.116Z,8.40
2023-11-30T18:00:05.830Z,8.40
2023-11-30T18:02:34.750Z,8.40
2023-11-30T18:05:09.790Z,8.40
2023-11-30T18:07:48.469Z,8.30
2023-11-30T18:10:22.823Z,8.30
2023-11-30T18:12:51.544Z,8.30
2023-11-30T18:15:22.119Z,8.30
2023-11-30T18:18:08.130Z,8.30
2023-11-30T18:20:56.117Z,8.30
2023-11-30T18:23:34.009Z,8.30
2023-11-30T18:26:02.786Z,8.20
2023-11-30T18:28:36.499Z,8.20
2023-11-30T18:31:16.305Z,8.20
2023-11-30T18:33:49.776Z,8.20
2023-11-30T18:36:22.332Z,8.10
2023-11-30T18:38:52.538Z,8.10
2023-11-30T18:41:26.571Z,8.10
2023-11-30T18:43:56.435Z,8.10
2023-11-30T18:46:33.716Z,8.00
2023-11-30T18:49:05.182Z,8.00
2023-11-30T18:51:37.212Z,8.00
2023-11-30T18:54:12.085Z,8.00
2023-11-30T18:56:43.050Z,8.00
2023-11-30T18:59:15.140Z,8.00
2023-11-30T19:01:47.093Z,8.00
2023-11-30T19:04:16.184Z,7.90
2023-11-30T19:06:50.135Z,8.00
2023-11-30T19:09:21.452Z,7.90
2023-11-30T19:12:04.820Z,7.90
2023-11-30T19:14:36.336Z,7.90
2023-11-30T19:17:13.424Z,7.90
2023-11-30T19:19:49.274Z,7.90
2023-11-30T19:22:27.887Z,7.90
2023-11-30T19:25:02.737Z,7.90
2023-11-30T19:27:31.371Z,7.90
2023-11-30T19:30:04.720Z,7.80
2023-11-30T19:32:33.397Z,7.80
2023-11-30T19:35:04.486Z,7.80
2023-11-30T19:37:35.259Z,7.70
2023-11-30T19:40:05.952Z,7.70
2023-11-30T19:42:47.217Z,7.70
2023-11-30T19:45:17.576Z,7.70
2023-11-30T19:47:47.453Z,7.60
2023-11-30T19:50:19.466Z,7.60
2023-11-30T19:52:54.203Z,7.60
2023-11-30T19:55:24.563Z,7.60
2023-11-30T19:57:58.777Z,7.60
2023-11-30T20:00:28.049Z,7.50
2023-11-30T20:02:58.298Z,7.50
2023-11-30T20:05:38.357Z,7.50
2023-11-30T20:08:11.049Z,7.50
2023-11-30T20:10:40.135Z,7.50
2023-11-30T20:13:09.177Z,7.50
2023-11-30T20:15:38.897Z,7.50
2023-11-30T20:18:13.030Z,7.50
2023-11-30T20:20:42.534Z,7.50
2023-11-30T20:23:31.060Z,7.50
2023-11-30T20:26:24.280Z,7.50
2023-11-30T20:28:54.611Z,7.50
2023-11-30T20:31:24.935Z,7.40
2023-11-30T20:34:08.254Z,7.50
2023-11-30T20:36:39.695Z,7.40
2023-11-30T20:39:11.890Z,7.40
2023-11-30T20:41:41.819Z,7.40
2023-11-30T20:44:13.435Z,7.40
2023-11-30T20:46:42.902Z,7.40
2023-11-30T20:49:11.744Z,7.40
2023-11-30T20:51:42.408Z,7.40
2023-11-30T20:54:13.208Z,7.40
2023-11-30T20:56:52.200Z,7.30
2023-11-30T20:59:24.430Z,7.30
2023-11-30T21:01:59.942Z,7.30
2023-11-30T21:04:33.687Z,7.30
2023-11-30T21:07:02.746Z,7.20
2023-11-30T21:09:36.938Z,7.20
2023-11-30T21:12:08.930Z,7.20
2023-11-30T21:14:49.295Z,7.20
2023-11-30T21:17:18.623Z,7.20
2023-11-30T21:19:51.644Z,7.20
2023-11-30T21:22:21.739Z,7.10
2023-11-30T21:24:52.370Z,7.10
2023-11-30T21:27:24.579Z,7.10
2023-11-30T21:29:56.602Z,7.10
2023-11-30T21:32:26.687Z,7.10
2023-11-30T21:34:59.977Z,7.00
2023-11-30T21:37:29.728Z,7.00
2023-11-30T21:40:06.587Z,7.00
2023-11-30T21:42:39.381Z,6.90
2023-11-30T21:45:13.786Z,6.90
2023-11-30T21:47:44.094Z,6.90
2023-11-30T21:50:39.101Z,6.90
2023-11-30T21:53:13.155Z,6.90
2023-11-30T21:55:45.041Z,6.90
2023-11-30T21:58:15.371Z,6.90
2023-11-30T22:00:46.492Z,6.90
2023-11-30T22:03:33.244Z,6.80
2023-11-30T22:06:02.585Z,6.80
2023-11-30T22:08:38.080Z,6.80
2023-11-30T22:11:09.341Z,6.80
2023-11-30T22:13:39.331Z,6.80
2023-11-30T22:16:18.730Z,6.80
2023-11-30T22:19:03.331Z,6.80
2023-11-30T22:21:39.202Z,6.80
2023-11-30T22:24:18.894Z,6.80
2023-11-30T22:26:51.326Z,6.80
2023-11-30T22:29:20.818Z,6.80
2023-11-30T22:32:00.412Z,6.80
2023-11-30T22:34:29.736Z,6.80
2023-11-30T22:37:05.827Z,6.80
2023-11-30T22:39:39.582Z,6.80
2023-11-30T22:42:15.912Z,6.80
2023-11-30T22:44:45.341Z,6.80
2023-11-30T22:47:19.655Z,6.80
2023-11-30T22:49:57.808Z,6.80
2023-11-30T22:52:32.813Z,6.80
2023-11-30T22:55:06.826Z,6.80
2023-11-30T22:57:39.396Z,6.80
2023-11-30T23:00:18.706Z,6.80
2023-11-30T23:02:49.579Z,6.80
2023-11-30T23:05:30.140Z,6.80
2023-11-30T23:08:07.987Z,6.80
2023-11-30T23:10:52.155Z,6.80
2023-11-30T23:13:32.204Z,6.90
2023-11-30T23:16:12.613Z,6.90
2023-11-30T23:18:42.147Z,6.80
2023-11-30T23:21:15.996Z,6.80
2023-11-30T23:23:45.226Z,6.80
2023-11-30T23:26:15.241Z,6.80
2023-11-30T23:29:00.348Z,6.70
2023-11-30T23:31:33.610Z,6.70
2023-11-30T23:34:09.048Z,6.70
2023-11-30T23:36:39.480Z,6.70
2023-11-30T23:39:09.604Z,6.70
2023-11-30T23:41:38.564Z,6.70
2023-11-30T23:44:10.142Z,6.70
2023-11-30T23:46:41.022Z,6.70
2023-11-30T23:49:20.909Z,6.80
2023-11-30T23:51:52.642Z,6.80
2023-11-30T23:54:29.134Z,6.80
2023-11-30T23:56:58.473Z,6.70
2023-11-30T23:59:30.356Z,6.70
